Time;durP1;ratioP1;P1;durP2;ratioP2;P2;SDS_P1;SDS_P2;PMS_P1;PMS_P2;Temp;Humidity;BMP_temperature;BMP_pressure;BME280_temperature;BME280_humidity;BME280_pressure;Samples;Min_cycle;Max_cycle;Signal;HPM_P1;HPM_P2
2023/04/19 00:00:15;;;;;;;12.50;11.37;;;8.80;99.90;;;;;;5094470;28;20951;-75
2023/04/19 00:02:43;;;;;;;12.60;11.50;;;8.80;99.90;;;;;;5076268;28;20586;-75
2023/04/19 00:05:12;;;;;;;13.60;12.20;;;8.70;99.90;;;;;;5076133;28;20440;-75
2023/04/19 00:07:40;;;;;;;13.52;12.13;;;8.70;99.90;;;;;;5075771;28;20445;-75
2023/04/19 00:10:11;;;;;;;14.00;12.60;;;8.80;99.90;;;;;;5094256;28;20271;-75
2023/04/19 00:12:39;;;;;;;13.27;11.97;;;8.70;99.90;;;;;;5075873;28;20871;-75
2023/04/19 00:15:08;;;;;;;15.03;13.50;;;8.70;99.90;;;;;;5076033;28;20965;-75
2023/04/19 00:17:36;;;;;;;14.93;13.60;;;8.60;99.90;;;;;;5076141;28;20453;-75
2023/04/19 00:20:05;;;;;;;15.80;14.20;;;8.60;99.90;;;;;;5076082;28;20447;-75
2023/04/19 00:22:34;;;;;;;14.97;13.47;;;8.50;99.90;;;;;;5075758;28;20468;-75
2023/04/19 00:25:02;;;;;;;14.40;13.17;;;8.50;99.90;;;;;;5075748;28;20473;-75
2023/04/19 00:27:32;;;;;;;16.77;15.07;;;8.40;99.90;;;;;;5075815;28;20444;-75
2023/04/19 00:30:00;;;;;;;17.43;15.20;;;8.40;99.90;;;;;;5075899;28;20444;-75
2023/04/19 00:32:31;;;;;;;16.70;15.10;;;8.40;99.90;;;;;;5075863;28;20479;-75
2023/04/19 00:34:59;;;;;;;17.00;15.40;;;8.40;99.90;;;;;;5075806;28;20470;-75
2023/04/19 00:37:27;;;;;;;15.90;14.40;;;8.30;99.90;;;;;;5075860;28;20452;-75
2023/04/19 00:39:55;;;;;;;17.77;16.07;;;8.20;99.90;;;;;;5075930;28;20436;-75
2023/04/19 00:42:24;;;;;;;16.90;15.13;;;8.20;99.90;;;;;;5093845;28;20457;-75
2023/04/19 00:44:53;;;;;;;16.50;14.90;;;8.20;99.90;;;;;;5075582;28;20444;-75
2023/04/19 00:47:21;;;;;;;16.67;15.07;;;8.10;99.90;;;;;;5075564;28;20457;-75
2023/04/19 00:49:50;;;;;;;15.90;14.40;;;8.10;99.90;;;;;;5075788;28;20534;-75
2023/04/19 00:52:18;;;;;;;16.37;14.83;;;8.10;99.90;;;;;;5076842;28;20456;-75
2023/04/19 00:54:46;;;;;;;16.60;15.00;;;8.00;99.90;;;;;;5095494;28;20939;-75
2023/04/19 00:57:16;;;;;;;15.17;13.77;;;8.00;99.90;;;;;;5076947;28;20942;-75
2023/04/19 00:59:44;;;;;;;14.20;12.90;;;8.00;99.90;;;;;;5077953;28;20440;-75
2023/04/19 01:02:14;;;;;;;13.70;12.30;;;8.00;99.90;;;;;;5078456;28;20464;-75
2023/04/19 01:04:42;;;;;;;14.10;12.70;;;7.90;99.90;;;;;;5078500;28;21011;-75
2023/04/19 01:07:11;;;;;;;14.30;12.90;;;7.90;99.90;;;;;;5076678;28;20450;-75
2023/04/19 01:09:44;;;;;;;14.67;12.87;;;7.80;99.90;;;;;;5077398;28;20448;-75
2023/04/19 01:12:12;;;;;;;14.07;12.70;;;7.80;99.90;;;;;;5078633;28;20998;-75
2023/04/19 01:14:43;;;;;;;13.17;11.97;;;7.80;99.90;;;;;;5076564;28;20497;-75
2023/04/19 01:17:13;;;;;;;14.33;13.03;;;7.80;99.90;;;;;;5076050;28;20444;-75
2023/04/19 01:19:43;;;;;;;12.80;11.60;;;7.80;99.90;;;;;;5075890;28;20443;-75
2023/04/19 01:22:18;;;;;;;14.00;12.63;;;7.70;99.90;;;;;;5075616;28;20456;-75
2023/04/19 01:24:46;;;;;;;15.57;13.23;;;7.70;99.90;;;;;;5093959;28;20491;-75
2023/04/19 01:27:16;;;;;;;14.93;13.43;;;7.70;99.90;;;;;;5078096;28;20440;-74
2023/04/19 01:29:44;;;;;;;17.00;13.30;;;7.60;99.90;;;;;;5097333;28;20459;-75
2023/04/19 01:32:12;;;;;;;14.40;12.90;;;7.60;99.90;;;;;;5097072;28;20459;-75
2023/04/19 01:34:41;;;;;;;14.03;12.60;;;7.60;99.90;;;;;;5078601;28;20546;-74
2023/04/19 01:37:10;;;;;;;13.00;11.70;;;7.60;99.90;;;;;;5094527;28;20438;-75
2023/04/19 01:39:39;;;;;;;14.10;12.77;;;7.50;99.90;;;;;;5075653;28;20511;-75
2023/04/19 01:42:07;;;;;;;13.10;11.90;;;7.50;99.90;;;;;;5077380;28;20501;-75
2023/04/19 01:44:36;;;;;;;13.93;12.63;;;7.40;99.90;;;;;;5075739;28;20493;-75
2023/04/19 01:47:05;;;;;;;14.10;12.70;;;7.50;99.90;;;;;;5093623;28;20438;-75
2023/04/19 01:49:33;;;;;;;13.70;12.30;;;7.40;99.90;;;;;;5075038;28;20445;-75
2023/04/19 01:52:01;;;;;;;14.87;13.30;;;7.40;99.90;;;;;;5093391;28;20472;-75
2023/04/19 01:54:29;;;;;;;16.77;15.27;;;7.40;99.90;;;;;;5074797;28;20826;-75
2023/04/19 01:56:59;;;;;;;16.07;14.47;;;7.30;99.90;;;;;;5074766;28;20447;-75
2023/04/19 01:59:28;;;;;;;16.40;14.70;;;7.30;99.90;;;;;;5075422;28;20450;-75
2023/04/19 02:01:56;;;;;;;17.27;15.63;;;7.30;99.90;;;;;;5074641;28;20518;-75
2023/04/19 02:04:25;;;;;;;17.13;15.47;;;7.30;99.90;;;;;;5074503;28;20467;-75
2023/04/19 02:06:53;;;;;;;16.87;15.33;;;7.20;99.90;;;;;;5074664;28;20436;-75
2023/04/19 02:09:21;;;;;;;16.53;14.93;;;7.20;99.90;;;;;;5074421;28;20886;-75
2023/04/19 02:11:49;;;;;;;16.77;15.17;;;7.20;99.90;;;;;;5074347;28;20929;-75
2023/04/19 02:14:19;;;;;;;15.47;14.07;;;7.10;99.90;;;;;;5074839;28;20459;-75
2023/04/19 02:16:47;;;;;;;15.50;13.83;;;7.10;99.90;;;;;;5096588;28;20440;-75
2023/04/19 02:19:15;;;;;;;14.93;13.50;;;7.10;99.90;;;;;;5078176;28;20477;-75
2023/04/19 02:21:43;;;;;;;17.80;14.33;;;7.00;99.90;;;;;;5078206;28;20442;-75
2023/04/19 02:24:14;;;;;;;14.17;12.83;;;7.00;99.90;;;;;;5078286;28;20837;-75
2023/04/19 02:26:43;;;;;;;15.70;14.20;;;6.90;99.90;;;;;;5078107;28;20453;-75
2023/04/19 02:29:11;;;;;;;14.70;13.20;;;6.90;99.90;;;;;;5078001;28;20541;-74
2023/04/19 02:31:40;;;;;;;15.07;13.47;;;6.90;99.90;;;;;;5077878;28;20437;-74
2023/04/19 02:34:09;;;;;;;17.80;13.23;;;6.80;99.90;;;;;;5078325;28;20442;-75
2023/04/19 02:36:38;;;;;;;13.97;12.60;;;6.80;99.90;;;;;;5077880;28;20480;-75
2023/04/19 02:39:06;;;;;;;13.93;12.53;;;6.80;99.90;;;;;;5077847;28;20459;-75
2023/04/19 02:41:39;;;;;;;13.30;12.03;;;6.80;99.90;;;;;;5077731;28;20441;-75
2023/04/19 02:44:07;;;;;;;13.93;12.63;;;6.70;99.90;;;;;;5077563;28;20472;-75
2023/04/19 02:46:35;;;;;;;14.63;12.53;;;6.70;99.90;;;;;;5077691;28;20451;-75
2023/04/19 02:49:05;;;;;;;13.77;12.47;;;6.70;99.90;;;;;;5077665;28;20473;-75
2023/04/19 02:51:33;;;;;;;13.73;12.33;;;6.60;99.90;;;;;;5077443;28;20517;-75
2023/04/19 02:54:02;;;;;;;13.53;12.13;;;6.60;99.90;;;;;;5077713;28;20440;-75
2023/04/19 02:56:30;;;;;;;14.20;12.80;;;6.50;99.90;;;;;;5077717;28;20442;-76
2023/04/19 02:59:00;;;;;;;15.60;13.10;;;6.50;99.90;;;;;;5077668;28;20450;-76
2023/04/19 03:01:30;;;;;;;13.00;11.70;;;6.40;99.90;;;;;;5077409;28;20522;-75
2023/04/19 03:03:59;;;;;;;13.30;12.00;;;6.40;99.90;;;;;;5077455;28;20468;-75
2023/04/19 03:06:29;;;;;;;12.57;10.70;;;6.30;99.90;;;;;;5077318;28;20861;-75
2023/04/19 03:08:58;;;;;;;14.07;12.33;;;6.30;99.90;;;;;;5077359;28;20448;-75
2023/04/19 03:11:27;;;;;;;13.73;11.30;;;6.30;99.90;;;;;;5077377;28;20546;-76
2023/04/19 03:13:56;;;;;;;14.10;12.80;;;6.20;99.90;;;;;;5095334;28;20564;-75
2023/04/19 03:16:25;;;;;;;13.10;11.50;;;6.20;99.90;;;;;;5077305;28;20466;-75
2023/04/19 03:18:53;;;;;;;12.07;10.97;;;6.20;99.90;;;;;;5077150;28;20450;-76
2023/04/19 03:21:27;;;;;;;11.77;10.57;;;6.20;99.90;;;;;;5077325;28;20531;-76
2023/04/19 03:23:58;;;;;;;12.77;11.50;;;6.10;99.90;;;;;;5077093;28;20941;-75
2023/04/19 03:26:27;;;;;;;14.70;11.80;;;6.10;99.90;;;;;;5075912;28;20459;-75
2023/04/19 03:28:57;;;;;;;12.67;9.93;;;6.10;99.90;;;;;;5076964;28;20950;-76
2023/04/19 03:31:34;;;;;;;11.27;10.07;;;6.10;99.90;;;;;;5077433;28;20440;-75
2023/04/19 03:34:04;;;;;;;12.60;10.00;;;6.00;99.90;;;;;;5076826;28;20457;-76
2023/04/19 03:36:39;;;;;;;12.17;11.00;;;6.00;99.90;;;;;;5076897;28;20443;-75
2023/04/19 03:39:09;;;;;;;11.97;10.20;;;5.90;99.90;;;;;;5078005;28;20501;-75
2023/04/19 03:41:40;;;;;;;11.07;9.80;;;5.90;99.90;;;;;;5078309;28;20441;-76
2023/04/19 03:44:22;;;;;;;15.93;10.27;;;5.90;99.90;;;;;;5077636;28;20521;-75
2023/04/19 03:46:51;;;;;;;13.63;10.77;;;5.90;99.90;;;;;;5094994;28;20441;-75
2023/04/19 03:49:23;;;;;;;14.63;11.17;;;5.90;99.90;;;;;;5077403;28;20506;-75
2023/04/19 03:52:01;;;;;;;12.87;11.40;;;5.80;99.90;;;;;;5076987;28;20994;-75
2023/04/19 03:54:31;;;;;;;11.50;10.30;;;5.80;99.90;;;;;;5076469;28;20440;-75
2023/04/19 03:57:00;;;;;;;11.60;9.90;;;5.80;99.90;;;;;;5076585;28;20907;-75
2023/04/19 03:59:28;;;;;;;11.37;10.13;;;5.70;99.90;;;;;;5076459;28;20479;-75
2023/04/19 04:01:58;;;;;;;10.77;9.50;;;5.70;99.90;;;;;;5076187;28;20950;-75
2023/04/19 04:04:27;;;;;;;11.40;9.83;;;5.70;99.90;;;;;;5076257;28;20562;-75
2023/04/19 04:06:55;;;;;;;13.67;10.77;;;5.70;99.90;;;;;;5076715;28;20436;-75
2023/04/19 04:09:23;;;;;;;13.00;9.27;;;5.60;99.90;;;;;;5076162;28;20452;-75
2023/04/19 04:11:54;;;;;;;11.30;8.90;;;5.60;99.90;;;;;;5076054;28;20441;-75
2023/04/19 04:14:22;;;;;;;11.63;9.90;;;5.60;99.90;;;;;;5076197;28;20448;-75
2023/04/19 04:16:51;;;;;;;12.90;10.00;;;5.60;99.90;;;;;;5075974;28;20891;-75
2023/04/19 04:19:20;;;;;;;11.43;9.60;;;5.50;99.90;;;;;;5075850;28;21016;-75
2023/04/19 04:21:49;;;;;;;12.40;10.07;;;5.50;99.90;;;;;;5075654;28;20808;-76
2023/04/19 04:24:19;;;;;;;13.70;10.67;;;5.40;99.90;;;;;;5075694;28;20971;-75
2023/04/19 04:27:04;;;;;;;12.77;10.93;;;5.40;99.90;;;;;;5076807;28;20445;-75
2023/04/19 04:29:36;;;;;;;13.50;10.17;;;5.40;99.90;;;;;;5075675;28;20445;-75
2023/04/19 04:32:09;;;;;;;13.30;10.07;;;5.30;99.90;;;;;;5075796;28;20460;-75
2023/04/19 04:34:41;;;;;;;16.20;10.67;;;5.30;99.90;;;;;;5075510;28;20451;-75
2023/04/19 04:37:16;;;;;;;11.50;10.30;;;5.30;99.90;;;;;;5075395;28;20435;-75
2023/04/19 04:39:45;;;;;;;11.50;9.87;;;5.20;99.90;;;;;;5075918;28;20459;-75
2023/04/19 04:42:14;;;;;;;10.57;9.47;;;5.20;99.90;;;;;;5075394;28;21001;-75
2023/04/19 04:44:43;;;;;;;11.67;10.50;;;5.20;99.90;;;;;;5075262;28;20955;-75
2023/04/19 04:47:13;;;;;;;12.70;11.30;;;5.20;99.90;;;;;;5075665;28;20440;-75
2023/04/19 04:49:47;;;;;;;12.93;10.60;;;5.20;99.90;;;;;;5075578;28;20543;-76
2023/04/19 04:52:16;;;;;;;11.90;10.70;;;5.20;99.90;;;;;;5075208;28;20556;-76
2023/04/19 04:54:57;;;;;;;12.53;10.10;;;5.10;99.90;;;;;;5075519;28;20501;-76
2023/04/19 04:57:32;;;;;;;13.93;10.60;;;5.10;99.90;;;;;;5075781;28;20429;-75
2023/04/19 05:00:02;;;;;;;14.20;11.40;;;5.10;99.90;;;;;;5075092;28;20953;-76
2023/04/19 05:02:36;;;;;;;13.00;10.63;;;5.10;99.90;;;;;;5075543;28;20552;-76
2023/04/19 05:05:06;;;;;;;14.40;10.20;;;5.10;99.90;;;;;;5075169;28;20460;-76
2023/04/19 05:07:34;;;;;;;14.43;11.20;;;5.10;99.90;;;;;;5075699;28;20536;-76
2023/04/19 05:10:03;;;;;;;13.17;11.20;;;5.00;99.90;;;;;;5074935;28;20885;-76
2023/04/19 05:12:42;;;;;;;13.20;11.00;;;5.00;99.90;;;;;;5074816;28;21026;-76
2023/04/19 05:15:10;;;;;;;12.40;11.10;;;5.00;99.90;;;;;;5074882;28;20435;-76
2023/04/19 05:17:42;;;;;;;13.27;10.70;;;5.00;99.90;;;;;;5075449;28;20444;-76
2023/04/19 05:20:11;;;;;;;14.17;10.67;;;5.00;99.90;;;;;;5074887;28;20476;-76
2023/04/19 05:22:39;;;;;;;14.17;10.63;;;5.00;99.90;;;;;;5074895;28;20517;-76
2023/04/19 05:25:10;;;;;;;15.53;10.57;;;5.00;99.90;;;;;;5074890;28;20510;-76
2023/04/19 05:27:40;;;;;;;13.10;10.00;;;5.00;99.90;;;;;;5074999;28;20448;-76
2023/04/19 05:30:10;;;;;;;10.70;9.60;;;5.00;99.90;;;;;;5075606;28;20534;-77
2023/04/19 05:32:42;;;;;;;11.20;9.70;;;5.00;99.90;;;;;;5074795;28;20464;-76
2023/04/19 05:35:14;;;;;;;10.53;9.33;;;5.00;99.90;;;;;;5074693;28;20464;-75
2023/04/19 05:37:44;;;;;;;14.63;9.90;;;5.00;99.90;;;;;;5074933;28;20476;-76
2023/04/19 05:40:13;;;;;;;11.70;9.90;;;5.00;99.90;;;;;;5092938;28;20448;-75
2023/04/19 05:42:43;;;;;;;16.80;9.57;;;5.10;99.90;;;;;;5074786;28;20982;-75
2023/04/19 05:45:14;;;;;;;11.80;9.63;;;5.10;99.90;;;;;;5074644;28;20911;-75
2023/04/19 05:47:42;;;;;;;13.07;10.77;;;5.10;99.90;;;;;;5074604;28;20518;-76
2023/04/19 05:50:40;;;;;;;15.70;9.43;;;5.10;99.90;;;;;;5040884;28;20988;-76
2023/04/19 05:53:25;;;;;;;10.33;8.73;;;5.20;99.90;;;;;;5078777;28;20475;-75
2023/04/19 05:55:55;;;;;;;10.47;8.67;;;5.20;99.90;;;;;;5078888;28;20486;-76
2023/04/19 05:58:25;;;;;;;11.47;10.17;;;5.20;99.90;;;;;;5078494;28;20467;-76
2023/04/19 06:00:53;;;;;;;12.37;8.80;;;5.30;99.90;;;;;;5078348;28;20455;-75
2023/04/19 06:03:23;;;;;;;13.80;9.27;;;5.30;99.90;;;;;;5078570;28;20468;-76
2023/04/19 06:05:55;;;;;;;10.47;8.80;;;5.40;99.90;;;;;;5078415;28;20468;-76
2023/04/19 06:08:24;;;;;;;9.90;8.50;;;5.60;99.90;;;;;;5078435;28;20974;-75
2023/04/19 06:10:55;;;;;;;10.90;8.53;;;5.80;99.90;;;;;;5078411;28;20478;-76
2023/04/19 06:13:36;;;;;;;9.47;8.53;;;6.10;99.90;;;;;;5078303;28;20832;-75
2023/04/19 06:16:05;;;;;;;8.53;7.43;;;6.30;99.90;;;;;;5078287;28;20439;-76
2023/04/19 06:18:33;;;;;;;9.00;7.87;;;6.50;99.90;;;;;;5078080;28;20456;-76
2023/04/19 06:21:01;;;;;;;9.20;7.80;;;6.80;99.90;;;;;;5078239;28;20452;-76
2023/04/19 06:23:29;;;;;;;9.53;7.60;;;7.00;99.90;;;;;;5078280;28;20590;-76
2023/04/19 06:25:57;;;;;;;8.83;7.30;;;7.30;99.90;;;;;;5096193;28;20850;-76
2023/04/19 06:28:25;;;;;;;8.90;6.60;;;7.40;99.90;;;;;;5078138;28;20546;-76
2023/04/19 06:30:55;;;;;;;8.50;6.67;;;7.60;99.90;;;;;;5096496;28;20477;-76
2023/04/19 06:33:23;;;;;;;8.70;7.03;;;7.80;99.90;;;;;;5077927;28;20474;-76
2023/04/19 06:35:51;;;;;;;8.17;6.70;;;8.00;99.90;;;;;;5096064;28;20428;-76
2023/04/19 06:38:19;;;;;;;9.53;7.03;;;8.20;99.90;;;;;;5078049;28;20459;-76
2023/04/19 06:40:47;;;;;;;7.10;6.03;;;8.40;99.90;;;;;;5077894;28;20859;-76
2023/04/19 06:43:15;;;;;;;6.60;5.47;;;8.60;99.90;;;;;;5077739;28;20573;-76
2023/04/19 06:45:43;;;;;;;7.80;5.80;;;8.90;99.90;;;;;;5077802;28;20854;-76
2023/04/19 06:48:13;;;;;;;9.37;6.50;;;8.90;99.90;;;;;;5097509;28;20528;-76
2023/04/19 06:50:41;;;;;;;8.17;6.20;;;9.00;99.90;;;;;;5078525;28;20512;-76
2023/04/19 06:53:09;;;;;;;8.27;5.70;;;9.10;99.90;;;;;;5077799;28;20468;-77
2023/04/19 06:55:37;;;;;;;7.70;6.47;;;9.20;99.90;;;;;;5077654;28;20467;-76
2023/04/19 06:58:09;;;;;;;7.20;5.13;;;9.20;99.90;;;;;;5077710;28;20436;-76
2023/04/19 07:00:37;;;;;;;8.27;5.40;;;9.20;99.90;;;;;;5077318;28;20456;-76
2023/04/19 07:03:06;;;;;;;6.77;5.70;;;9.20;99.90;;;;;;5077447;28;20555;-76
2023/04/19 07:05:36;;;;;;;6.87;5.43;;;9.30;99.90;;;;;;5077478;28;20959;-76
2023/04/19 07:08:05;;;;;;;5.60;4.80;;;9.40;99.90;;;;;;5095880;28;20449;-76
2023/04/19 07:10:33;;;;;;;7.70;5.30;;;9.40;99.90;;;;;;5077663;28;20443;-76
2023/04/19 07:13:01;;;;;;;8.57;5.53;;;9.40;99.90;;;;;;5077306;28;20472;-76
2023/04/19 07:15:29;;;;;;;6.90;4.70;;;9.40;99.90;;;;;;5095481;28;20440;-76
2023/04/19 07:17:57;;;;;;;7.37;5.80;;;9.50;99.90;;;;;;5077188;28;20448;-76
2023/04/19 07:20:25;;;;;;;7.33;4.80;;;9.60;99.90;;;;;;5077298;28;20532;-76
2023/04/19 07:22:55;;;;;;;6.10;4.40;;;9.80;99.90;;;;;;5077024;28;20504;-76
2023/04/19 07:25:23;;;;;;;5.77;4.23;;;10.00;99.90;;;;;;5077462;28;20451;-76
2023/04/19 07:27:53;;;;;;;7.77;5.03;;;10.10;99.90;;;;;;5095219;28;20506;-76
2023/04/19 07:30:21;;;;;;;5.80;4.70;;;10.40;99.90;;;;;;5076954;28;20520;-76
2023/04/19 07:32:50;;;;;;;6.10;4.70;;;10.60;99.90;;;;;;5076702;28;20969;-76
2023/04/19 07:35:19;;;;;;;6.37;4.90;;;10.80;99.90;;;;;;5076857;28;20440;-76
2023/04/19 07:37:47;;;;;;;6.53;4.53;;;11.00;99.90;;;;;;5076885;28;20440;-76
2023/04/19 07:40:18;;;;;;;5.80;4.20;;;11.20;99.90;;;;;;5076970;28;20441;-76
2023/04/19 07:42:46;;;;;;;6.00;4.33;;;11.40;99.90;;;;;;5076676;28;20488;-76
2023/04/19 07:45:14;;;;;;;4.47;3.37;;;11.50;99.90;;;;;;5076827;28;20440;-76
2023/04/19 07:47:42;;;;;;;4.87;3.77;;;11.70;99.90;;;;;;5094694;28;20533;-76
2023/04/19 07:50:11;;;;;;;5.53;3.70;;;11.80;99.90;;;;;;5076672;28;20440;-76
2023/04/19 07:52:39;;;;;;;5.53;3.60;;;11.90;99.90;;;;;;5094631;28;20464;-76
2023/04/19 07:55:08;;;;;;;5.20;3.17;;;12.00;99.90;;;;;;5076604;28;20852;-76
2023/04/19 07:57:38;;;;;;;5.43;3.73;;;12.20;99.90;;;;;;5076418;28;20793;-76
2023/04/19 08:00:09;;;;;;;5.70;3.40;;;12.30;99.90;;;;;;5076609;28;20495;-76
2023/04/19 08:02:44;;;;;;;4.90;3.47;;;12.50;99.90;;;;;;5094832;28;20487;-76
2023/04/19 08:05:15;;;;;;;5.80;3.57;;;12.60;99.90;;;;;;5076384;28;20826;-76
2023/04/19 08:07:44;;;;;;;5.43;3.23;;;12.70;99.90;;;;;;5094752;28;20460;-76
2023/04/19 08:10:12;;;;;;;5.83;3.37;;;12.90;99.90;;;;;;5076396;28;20947;-76
2023/04/19 08:12:42;;;;;;;4.60;3.17;;;13.00;99.90;;;;;;5075482;28;20468;-76
2023/04/19 08:15:28;;;;;;;5.57;3.60;;;13.00;99.90;;;;;;5076199;28;20448;-78
2023/04/19 08:18:17;;;;;;;4.40;2.97;;;13.20;99.90;;;;;;5095108;28;20818;-76
2023/04/19 08:20:46;;;;;;;7.40;3.20;;;13.30;99.90;;;;;;5094692;28;20432;-76
2023/04/19 08:23:14;;;;;;;4.93;2.90;;;13.30;99.90;;;;;;5075871;28;20467;-76
2023/04/19 08:25:54;;;;;;;3.70;2.40;;;13.40;99.90;;;;;;5076113;28;20515;-76
2023/04/19 08:28:24;;;;;;;4.40;2.90;;;13.50;99.90;;;;;;5075805;28;20634;-76
2023/04/19 08:30:52;;;;;;;11.47;4.33;;;13.60;99.90;;;;;;5075777;28;20444;-76
2023/04/19 08:33:20;;;;;;;4.40;2.80;;;13.60;99.80;;;;;;5075825;28;20469;-77
2023/04/19 08:35:48;;;;;;;5.70;3.10;;;13.70;99.70;;;;;;5075833;28;20440;-76
2023/04/19 08:38:16;;;;;;;4.77;2.87;;;13.80;99.70;;;;;;5093898;28;20460;-76
2023/04/19 08:40:47;;;;;;;3.83;2.70;;;13.90;99.60;;;;;;5093831;28;20415;-77
2023/04/19 08:43:17;;;;;;;4.80;3.10;;;14.00;99.40;;;;;;5093850;28;20507;-76
2023/04/19 08:45:48;;;;;;;5.00;2.83;;;14.10;99.30;;;;;;5093803;28;20432;-76
2023/04/19 08:48:17;;;;;;;7.73;2.53;;;14.10;99.10;;;;;;5093605;28;20503;-76
2023/04/19 08:50:47;;;;;;;4.60;2.80;;;14.20;98.90;;;;;;5076114;28;20951;-76
2023/04/19 08:53:33;;;;;;;6.10;2.50;;;14.20;98.50;;;;;;5093607;28;20460;-76
2023/04/19 08:56:02;;;;;;;4.10;2.40;;;14.30;98.40;;;;;;5076319;28;20432;-76
2023/04/19 08:58:51;;;;;;;5.63;2.50;;;14.30;98.10;;;;;;5075514;28;20482;-76
2023/04/19 09:01:39;;;;;;;5.10;3.00;;;14.40;97.80;;;;;;5075508;28;20458;-77
2023/04/19 09:04:11;;;;;;;5.90;2.67;;;14.50;97.80;;;;;;5093697;28;20829;-76
2023/04/19 09:06:42;;;;;;;3.60;2.23;;;14.60;97.60;;;;;;5075482;28;20444;-76
2023/04/19 09:09:18;;;;;;;4.17;2.63;;;14.60;97.20;;;;;;5093793;28;20955;-76
2023/04/19 09:11:50;;;;;;;3.73;2.23;;;14.70;96.70;;;;;;5075330;28;20950;-77
2023/04/19 09:14:20;;;;;;;5.17;2.43;;;14.70;96.60;;;;;;5075324;28;20452;-76
2023/04/19 09:16:50;;;;;;;4.20;2.50;;;14.80;96.60;;;;;;5075547;28;20785;-76
2023/04/19 09:19:19;;;;;;;6.43;2.67;;;14.80;96.00;;;;;;5075354;28;20482;-76
2023/04/19 09:21:52;;;;;;;5.60;2.77;;;14.80;95.50;;;;;;5093250;28;20420;-76
2023/04/19 09:24:38;;;;;;;4.80;2.80;;;14.80;95.30;;;;;;5092657;28;20498;-76
2023/04/19 09:27:28;;;;;;;4.00;2.53;;;14.90;94.90;;;;;;5075014;28;21051;-76
2023/04/19 09:29:57;;;;;;;4.90;2.60;;;14.90;95.10;;;;;;5075128;28;20955;-76
2023/04/19 09:32:28;;;;;;;3.87;2.67;;;14.90;94.80;;;;;;5093322;28;20514;-76
2023/04/19 09:34:57;;;;;;;5.13;2.87;;;14.90;94.70;;;;;;5075213;28;20437;-76
2023/04/19 09:37:26;;;;;;;7.57;2.43;;;15.00;94.40;;;;;;5075033;28;20455;-76
2023/04/19 09:40:25;;;;;;;5.03;3.00;;;15.00;94.30;;;;;;5093078;28;20432;-76
2023/04/19 09:42:54;;;;;;;4.80;2.77;;;15.00;93.70;;;;;;5075035;28;21032;-76
2023/04/19 09:45:43;;;;;;;4.30;2.90;;;14.90;93.60;;;;;;5074925;28;20440;-76
2023/04/19 09:48:13;;;;;;;6.10;2.60;;;14.90;93.40;;;;;;5093141;28;20442;-76
2023/04/19 09:50:52;;;;;;;5.73;2.53;;;14.90;93.40;;;;;;5074994;28;20452;-76
2023/04/19 09:53:28;;;;;;;5.00;2.80;;;14.90;93.40;;;;;;5075621;28;20511;-76
2023/04/19 09:55:57;;;;;;;6.10;3.60;;;14.90;93.40;;;;;;5075237;28;20440;-76
2023/04/19 09:58:30;;;;;;;4.40;2.90;;;14.90;93.30;;;;;;5074832;28;20440;-78
2023/04/19 10:01:01;;;;;;;5.10;2.93;;;14.90;92.90;;;;;;5092800;28;20451;-77
2023/04/19 10:03:47;;;;;;;5.03;2.77;;;14.80;92.90;;;;;;5074734;28;20547;-76
2023/04/19 10:06:17;;;;;;;5.53;3.10;;;14.80;93.10;;;;;;5074760;28;20440;-77
2023/04/19 10:08:50;;;;;;;7.10;2.60;;;14.80;93.10;;;;;;5074702;28;20456;-76
2023/04/19 10:11:20;;;;;;;6.43;2.93;;;14.90;93.20;;;;;;5075594;28;20429;-76
2023/04/19 10:13:49;;;;;;;4.77;3.20;;;14.90;93.10;;;;;;5074793;28;20472;-76
2023/04/19 10:16:18;;;;;;;5.07;2.80;;;14.90;93.00;;;;;;5074685;28;20440;-76
2023/04/19 10:18:51;;;;;;;6.33;3.27;;;15.00;92.90;;;;;;5093211;28;20942;-76
2023/04/19 10:21:20;;;;;;;5.90;2.73;;;15.00;92.70;;;;;;5074618;28;20469;-77
2023/04/19 10:23:49;;;;;;;3.93;2.53;;;15.00;92.70;;;;;;5074614;28;20503;-77
2023/04/19 10:26:17;;;;;;;5.17;2.73;;;15.00;92.60;;;;;;5074634;28;20440;-77
2023/04/19 10:28:45;;;;;;;5.30;2.80;;;15.00;92.70;;;;;;5074566;28;20464;-77
2023/04/19 10:31:13;;;;;;;4.77;2.30;;;15.10;92.80;;;;;;5074574;28;20436;-77
2023/04/19 10:33:42;;;;;;;4.40;2.67;;;15.10;92.70;;;;;;5074279;28;20523;-77
2023/04/19 10:36:16;;;;;;;5.70;2.80;;;15.20;92.40;;;;;;5076071;28;20471;-77
2023/04/19 10:38:47;;;;;;;6.20;2.90;;;15.20;92.20;;;;;;5096386;28;20469;-77
2023/04/19 10:41:16;;;;;;;5.07;2.30;;;15.20;91.70;;;;;;5096174;28;20451;-77
2023/04/19 10:43:47;;;;;;;5.10;2.47;;;15.20;91.20;;;;;;5078013;28;20463;-77
2023/04/19 10:46:35;;;;;;;5.13;2.60;;;15.10;90.80;;;;;;5077842;28;20444;-77
2023/04/19 10:49:06;;;;;;;3.50;2.10;;;15.10;90.50;;;;;;5077774;28;20979;-77
2023/04/19 10:51:37;;;;;;;4.73;2.40;;;15.10;90.70;;;;;;5095996;28;20416;-77
2023/04/19 10:54:08;;;;;;;6.57;2.60;;;15.10;90.70;;;;;;5096049;28;20425;-77
2023/04/19 10:57:03;;;;;;;4.83;2.07;;;15.10;90.50;;;;;;5077646;28;20459;-77
2023/04/19 10:59:32;;;;;;;3.90;2.30;;;15.20;90.10;;;;;;5077807;28;20999;-77
2023/04/19 11:02:02;;;;;;;4.40;2.53;;;15.20;90.20;;;;;;5077467;28;20438;-77
2023/04/19 11:04:59;;;;;;;4.47;3.00;;;15.20;90.00;;;;;;5077552;28;20509;-77
2023/04/19 11:07:37;;;;;;;4.47;2.57;;;15.20;89.80;;;;;;5077551;28;20435;-76
2023/04/19 11:10:06;;;;;;;3.80;2.20;;;15.30;89.80;;;;;;5077467;28;20853;-76
2023/04/19 11:12:34;;;;;;;6.13;2.70;;;15.30;89.50;;;;;;5077293;28;20464;-76
2023/04/19 11:15:05;;;;;;;4.73;2.30;;;15.30;89.30;;;;;;5077299;28;20472;-76
2023/04/19 11:17:35;;;;;;;4.17;3.00;;;15.30;88.20;;;;;;5077266;28;20535;-76
2023/04/19 11:20:07;;;;;;;4.40;2.23;;;15.30;88.10;;;;;;5095371;28;20413;-76
2023/04/19 11:22:38;;;;;;;3.90;2.60;;;15.30;87.70;;;;;;5077663;28;20567;-76
2023/04/19 11:25:08;;;;;;;4.23;2.30;;;15.30;87.60;;;;;;5077276;28;20446;-76
2023/04/19 11:27:37;;;;;;;4.33;1.83;;;15.30;86.90;;;;;;5095301;28;20998;-76
2023/04/19 11:30:07;;;;;;;4.80;2.50;;;15.30;86.80;;;;;;5077054;28;20479;-76
2023/04/19 11:32:36;;;;;;;4.50;2.80;;;15.30;86.20;;;;;;5076956;28;20464;-76
2023/04/19 11:35:06;;;;;;;3.40;1.80;;;15.20;86.30;;;;;;5076973;28;20819;-76
2023/04/19 11:37:35;;;;;;;4.97;2.83;;;15.20;86.20;;;;;;5095129;28;20416;-76
2023/04/19 11:40:07;;;;;;;4.67;2.60;;;15.20;86.30;;;;;;5095276;28;20443;-76
2023/04/19 11:42:35;;;;;;;5.30;3.17;;;15.20;86.30;;;;;;5076704;28;20472;-76
2023/04/19 11:45:04;;;;;;;5.20;2.57;;;15.20;86.10;;;;;;5076822;28;20448;-76
2023/04/19 11:47:48;;;;;;;4.60;2.77;;;15.20;86.10;;;;;;5075778;28;20543;-76
2023/04/19 11:50:32;;;;;;;4.20;2.50;;;15.20;85.50;;;;;;5076705;28;20460;-76
2023/04/19 11:53:10;;;;;;;3.70;2.33;;;15.20;85.60;;;;;;5074899;28;20479;-76
2023/04/19 11:55:42;;;;;;;3.60;2.00;;;15.20;85.30;;;;;;5076552;28;20458;-76
2023/04/19 11:58:24;;;;;;;3.90;2.60;;;15.20;85.00;;;;;;5094894;28;20516;-76
2023/04/19 12:00:52;;;;;;;5.00;2.47;;;15.10;85.20;;;;;;5094629;28;20487;-77
2023/04/19 12:03:23;;;;;;;4.80;2.90;;;15.10;85.40;;;;;;5076320;28;20490;-77
2023/04/19 12:05:55;;;;;;;4.33;2.60;;;15.10;85.30;;;;;;5076348;28;20466;-77
2023/04/19 12:08:31;;;;;;;4.17;2.80;;;15.10;85.30;;;;;;5076305;28;20939;-77
2023/04/19 12:11:02;;;;;;;3.83;2.40;;;15.10;84.50;;;;;;5076473;28;20447;-77
2023/04/19 12:13:31;;;;;;;4.40;2.77;;;15.10;84.20;;;;;;5076121;28;20475;-77
2023/04/19 12:15:59;;;;;;;6.57;2.70;;;15.10;84.30;;;;;;5076189;28;20440;-77
2023/04/19 12:18:27;;;;;;;6.00;2.73;;;15.10;83.90;;;;;;5076152;28;20451;-77
2023/04/19 12:20:55;;;;;;;4.77;2.80;;;15.10;84.10;;;;;;5075990;28;20961;-77
2023/04/19 12:23:26;;;;;;;6.53;2.70;;;15.10;83.80;;;;;;5094238;28;20488;-77
2023/04/19 12:25:54;;;;;;;6.07;2.67;;;15.00;83.00;;;;;;5075968;28;20454;-77
2023/04/19 12:28:24;;;;;;;4.70;3.10;;;15.00;82.80;;;;;;5094069;28;20521;-77
2023/04/19 12:30:52;;;;;;;4.40;2.47;;;15.00;82.70;;;;;;5094363;28;20468;-77
2023/04/19 12:33:20;;;;;;;4.03;2.57;;;15.00;82.90;;;;;;5075764;28;20464;-76
2023/04/19 12:35:50;;;;;;;6.27;2.87;;;15.10;82.90;;;;;;5075797;28;20515;-77
2023/04/19 12:38:19;;;;;;;6.37;3.30;;;15.10;81.80;;;;;;5093967;28;20428;-77
2023/04/19 12:40:47;;;;;;;5.60;3.20;;;15.10;81.90;;;;;;5075947;28;20444;-77
2023/04/19 12:43:15;;;;;;;5.07;3.77;;;15.10;82.00;;;;;;5093861;28;20513;-77
2023/04/19 12:45:45;;;;;;;5.67;3.20;;;15.20;81.50;;;;;;5075759;28;20492;-77
2023/04/19 12:48:13;;;;;;;4.70;3.40;;;15.20;81.40;;;;;;5075857;28;20548;-77
2023/04/19 12:50:41;;;;;;;4.80;3.00;;;15.20;81.20;;;;;;5095991;28;20467;-77
2023/04/19 12:53:10;;;;;;;5.37;3.17;;;15.20;80.50;;;;;;5078081;28;20494;-77
2023/04/19 12:55:38;;;;;;;5.90;2.73;;;15.20;80.20;;;;;;5094361;28;20852;-77
2023/04/19 12:58:06;;;;;;;4.53;3.03;;;15.20;79.80;;;;;;5075193;28;20440;-77
2023/04/19 13:00:34;;;;;;;5.30;3.03;;;15.20;79.40;;;;;;5093780;28;20934;-77